createdAt,value
2022-10-22T00:01:44.329Z,71.30
2022-10-22T00:04:50.671Z,86.90
2022-10-22T00:07:52.470Z,82.10
2022-10-22T00:10:54.729Z,75.60
2022-10-22T00:13:58.130Z,79.50
2022-10-22T00:17:01.400Z,85.80
2022-10-22T00:20:04.578Z,81.60
2022-10-22T00:23:07.019Z,82.40
2022-10-22T00:26:08.967Z,79.80
2022-10-22T00:29:10.831Z,79.50
2022-10-22T00:32:12.901Z,80.60
2022-10-22T00:35:14.673Z,83.30
2022-10-22T00:38:16.394Z,82.50
2022-10-22T00:41:18.178Z,75.90
2022-10-22T00:44:57.774Z,86.00
2022-10-22T00:48:02.603Z,82.70
2022-10-22T00:51:06.751Z,70.20
2022-10-22T00:54:09.171Z,62.50
2022-10-22T00:57:10.961Z,70.20
2022-10-22T01:00:13.114Z,74.10
2022-10-22T01:03:15.379Z,74.50
2022-10-22T01:06:25.441Z,74.50
2022-10-22T01:09:52.407Z,70.10
2022-10-22T01:13:00.411Z,70.40
2022-10-22T01:16:12.021Z,68.80
2022-10-22T01:22:44.716Z,66.60
2022-10-22T01:26:05.426Z,68.40
2022-10-22T01:29:16.487Z,61.30
2022-10-22T01:32:23.914Z,59.30
2022-10-22T01:35:29.224Z,57.70
2022-10-22T01:38:31.426Z,66.20
2022-10-22T01:41:34.830Z,64.60
2022-10-22T01:44:37.635Z,62.30
2022-10-22T01:47:53.918Z,62.90
2022-10-22T01:50:58.557Z,67.10
2022-10-22T01:54:07.048Z,69.10
2022-10-22T01:57:08.719Z,68.70
2022-10-22T02:00:12.683Z,67.10
2022-10-22T02:03:21.343Z,67.00
2022-10-22T02:06:26.106Z,62.20
2022-10-22T02:09:29.207Z,66.10
2022-10-22T02:12:32.698Z,66.60
2022-10-22T02:15:36.273Z,67.60
2022-10-22T02:18:40.789Z,63.50
2022-10-22T02:21:42.927Z,64.80
2022-10-22T02:24:45.018Z,60.40
2022-10-22T02:27:49.882Z,60.90
2022-10-22T02:31:02.091Z,61.00
2022-10-22T02:34:10.234Z,61.60
2022-10-22T02:37:12.832Z,54.40
2022-10-22T02:40:14.726Z,60.20
2022-10-22T02:43:18.473Z,56.20
2022-10-22T02:46:20.246Z,58.00
2022-10-22T02:49:22.074Z,64.40
2022-10-22T02:52:23.850Z,60.30
2022-10-22T02:55:25.619Z,61.40
2022-10-22T02:58:27.352Z,51.10
2022-10-22T03:01:29.247Z,61.40
2022-10-22T03:04:31.157Z,61.30
2022-10-22T03:07:33.630Z,63.90
2022-10-22T03:10:35.440Z,57.10
2022-10-22T03:13:37.932Z,56.90
2022-10-22T03:16:39.698Z,55.00
2022-10-22T03:19:42.259Z,52.50
2022-10-22T03:22:45.116Z,90.50
2022-10-22T03:25:48.486Z,71.40
2022-10-22T03:28:50.362Z,53.10
2022-10-22T03:31:52.842Z,61.10
2022-10-22T03:34:54.686Z,62.00
2022-10-22T03:37:56.547Z,65.90
2022-10-22T03:40:58.639Z,134.90
2022-10-22T03:44:02.135Z,160.20
2022-10-22T03:47:04.398Z,112.00
2022-10-22T03:50:06.925Z,62.60
2022-10-22T03:53:10.840Z,65.90
2022-10-22T03:56:13.502Z,53.60
2022-10-22T03:59:15.541Z,54.90
2022-10-22T04:02:17.372Z,59.50
2022-10-22T04:05:19.115Z,116.80
2022-10-22T04:08:20.828Z,203.80
2022-10-22T04:14:24.311Z,96.20
2022-10-22T04:17:26.078Z,51.10
2022-10-22T04:23:29.496Z,106.30
2022-10-22T04:26:31.321Z,68.90
2022-10-22T04:29:33.186Z,64.90
2022-10-22T04:32:34.940Z,120.10
2022-10-22T04:35:39.928Z,102.90
2022-10-22T04:38:43.003Z,89.30
2022-10-22T04:41:44.772Z,68.00
2022-10-22T04:44:46.649Z,65.70
2022-10-22T04:47:48.411Z,69.40
2022-10-22T04:50:50.303Z,62.10
2022-10-22T04:53:52.246Z,61.90
2022-10-22T04:56:53.946Z,57.10
2022-10-22T05:02:57.406Z,52.40
2022-10-22T05:09:08.832Z,59.10
2022-10-22T05:12:10.666Z,54.20
2022-10-22T05:18:15.867Z,85.50
2022-10-22T05:21:19.951Z,70.70
2022-10-22T05:24:22.175Z,61.40
2022-10-22T05:27:23.858Z,57.10
2022-10-22T05:33:29.083Z,58.80
2022-10-22T05:36:30.930Z,54.60
2022-10-22T05:39:36.937Z,64.00
2022-10-22T05:42:39.050Z,74.50
2022-10-22T05:45:42.421Z,79.70
2022-10-22T05:48:44.791Z,60.70
2022-10-22T05:51:47.169Z,50.90
2022-10-22T05:54:48.930Z,58.50
2022-10-22T05:57:50.735Z,53.40
2022-10-22T06:00:52.511Z,54.30
2022-10-22T06:04:01.981Z,52.20
2022-10-22T06:07:03.994Z,63.90
2022-10-22T06:10:06.788Z,73.90
2022-10-22T06:13:08.610Z,76.60
2022-10-22T06:16:10.673Z,64.30
2022-10-22T06:19:16.915Z,59.10
2022-10-22T06:22:18.711Z,57.60
2022-10-22T06:25:20.515Z,54.30
2022-10-22T06:31:25.940Z,53.70
2022-10-22T06:34:27.701Z,53.30
2022-10-22T06:37:29.407Z,59.20
2022-10-22T06:40:31.300Z,60.00
2022-10-22T06:43:33.106Z,55.70
2022-10-22T06:46:34.887Z,64.00
2022-10-22T06:49:36.928Z,61.60
2022-10-22T06:52:38.787Z,60.40
2022-10-22T06:55:40.589Z,65.70
2022-10-22T06:58:42.431Z,50.70
2022-10-22T07:01:44.408Z,42.50
2022-10-22T07:04:46.347Z,46.00
2022-10-22T07:07:48.168Z,45.90
2022-10-22T07:10:49.961Z,49.60
2022-10-22T07:13:53.963Z,56.60
2022-10-22T07:16:55.973Z,48.60
2022-10-22T07:19:58.899Z,52.60
2022-10-22T07:23:00.633Z,51.80
2022-10-22T07:26:02.968Z,49.00
2022-10-22T07:29:05.152Z,53.70
2022-10-22T07:32:06.995Z,55.40
2022-10-22T07:35:09.140Z,45.60
2022-10-22T07:38:10.899Z,48.30
2022-10-22T07:41:13.734Z,46.40
2022-10-22T07:44:15.554Z,45.50
2022-10-22T07:47:17.342Z,47.40
2022-10-22T07:50:19.409Z,50.50
2022-10-22T07:53:24.307Z,55.30
2022-10-22T07:56:26.061Z,50.10
2022-10-22T07:59:27.860Z,45.50
2022-10-22T08:02:29.591Z,48.40
2022-10-22T08:05:31.416Z,45.60
2022-10-22T08:08:33.671Z,46.60
2022-10-22T08:11:35.480Z,53.10
2022-10-22T08:14:37.257Z,44.70
2022-10-22T08:17:39.237Z,45.30
2022-10-22T08:20:42.412Z,46.50
2022-10-22T08:23:44.196Z,47.90
2022-10-22T08:26:46.308Z,46.30
2022-10-22T08:29:48.371Z,50.00
2022-10-22T08:32:53.086Z,44.10
2022-10-22T08:35:56.633Z,43.50
2022-10-22T08:38:58.356Z,43.30
2022-10-22T08:42:25.306Z,39.70
2022-10-22T08:45:52.510Z,44.00
2022-10-22T08:48:56.378Z,43.20
2022-10-22T08:51:58.727Z,42.30
2022-10-22T08:55:02.335Z,43.50
2022-10-22T08:58:19.057Z,42.40
2022-10-22T09:01:37.268Z,37.70
2022-10-22T09:04:48.970Z,43.70
2022-10-22T09:07:50.942Z,43.70
2022-10-22T09:11:06.180Z,48.60
2022-10-22T09:17:34.124Z,39.40
2022-10-22T09:20:44.582Z,43.20
2022-10-22T09:24:03.575Z,49.30
2022-10-22T09:27:15.947Z,47.30
2022-10-22T09:30:20.443Z,40.70
2022-10-22T09:33:27.617Z,43.50
2022-10-22T09:36:30.110Z,44.40
2022-10-22T09:39:34.830Z,44.40
2022-10-22T09:42:36.481Z,37.70
2022-10-22T09:45:38.171Z,40.00
2022-10-22T09:48:42.310Z,42.10
2022-10-22T09:51:57.701Z,44.20
2022-10-22T09:55:02.661Z,41.80
2022-10-22T09:58:04.934Z,39.40
2022-10-22T10:01:06.746Z,38.60
2022-10-22T10:04:14.619Z,36.60
2022-10-22T10:07:19.659Z,34.30
2022-10-22T10:10:50.804Z,38.50
2022-10-22T10:14:06.956Z,37.90
2022-10-22T10:17:27.563Z,38.20
2022-10-22T10:20:59.104Z,40.30
2022-10-22T10:27:30.034Z,37.50
2022-10-22T10:30:32.845Z,36.10
2022-10-22T10:33:47.400Z,35.60
2022-10-22T10:36:59.860Z,37.30
2022-10-22T10:40:17.129Z,42.80
2022-10-22T10:43:40.325Z,41.30
2022-10-22T10:46:50.462Z,37.60
2022-10-22T10:49:54.987Z,40.10
2022-10-22T10:52:56.912Z,37.30
2022-10-22T10:56:02.942Z,33.30
2022-10-22T10:59:18.787Z,37.20
2022-10-22T11:02:48.405Z,33.90
2022-10-22T11:05:54.579Z,39.90
2022-10-22T11:09:01.251Z,38.70
2022-10-22T11:12:07.467Z,37.20
2022-10-22T11:15:16.830Z,38.80
2022-10-22T11:18:32.683Z,38.80
2022-10-22T11:21:42.174Z,38.10
2022-10-22T11:24:50.888Z,37.60
2022-10-22T11:28:03.174Z,42.60
2022-10-22T11:31:16.082Z,41.60
2022-10-22T11:34:33.835Z,44.30
2022-10-22T11:37:39.295Z,43.40
2022-10-22T11:40:48.797Z,43.90
2022-10-22T11:43:59.040Z,43.50
2022-10-22T11:47:24.497Z,45.20
2022-10-22T11:50:27.786Z,44.80
2022-10-22T11:53:37.766Z,45.30
2022-10-22T11:56:39.590Z,56.10
2022-10-22T11:59:49.770Z,64.60
2022-10-22T12:03:15.959Z,67.50
2022-10-22T12:06:21.795Z,61.20
2022-10-22T12:09:26.944Z,60.30
2022-10-22T12:12:36.202Z,56.70
2022-10-22T12:15:46.940Z,60.60
2022-10-22T12:18:49.146Z,80.30
2022-10-22T12:22:07.705Z,70.80
2022-10-22T12:25:18.250Z,53.80
2022-10-22T12:28:20.127Z,52.80
2022-10-22T12:31:21.940Z,57.70
2022-10-22T12:34:25.249Z,56.20
2022-10-22T12:37:29.635Z,54.20
2022-10-22T12:40:35.234Z,55.60
2022-10-22T12:43:39.660Z,51.40
2022-10-22T12:46:42.381Z,54.00
2022-10-22T12:49:48.715Z,52.20
2022-10-22T12:52:50.723Z,54.20
2022-10-22T12:55:54.492Z,60.40
2022-10-22T12:59:02.258Z,57.70
2022-10-22T13:02:22.920Z,59.50
2022-10-22T13:05:28.132Z,68.70
2022-10-22T13:08:29.969Z,62.00
2022-10-22T13:11:34.987Z,57.30
2022-10-22T13:14:38.644Z,58.10
2022-10-22T13:17:42.461Z,58.80
2022-10-22T13:21:01.830Z,58.60
2022-10-22T13:24:20.385Z,55.10
2022-10-22T13:27:23.757Z,55.30
2022-10-22T13:30:27.956Z,60.50
2022-10-22T13:33:33.777Z,72.50
2022-10-22T13:36:35.973Z,69.70
2022-10-22T13:39:37.792Z,77.40
2022-10-22T13:42:40.187Z,73.90
2022-10-22T13:45:44.727Z,74.60
2022-10-22T13:48:48.258Z,63.90
2022-10-22T13:51:51.508Z,65.60
2022-10-22T13:54:53.389Z,67.40
2022-10-22T13:58:10.215Z,68.40
2022-10-22T14:01:27.929Z,66.40
2022-10-22T14:04:29.883Z,68.10
2022-10-22T14:07:31.690Z,62.20
2022-10-22T14:10:33.517Z,66.30
2022-10-22T14:13:35.433Z,66.50
2022-10-22T14:16:37.698Z,67.50
2022-10-22T14:19:39.616Z,66.20
2022-10-22T14:22:41.515Z,66.60
2022-10-22T14:25:43.241Z,62.30
2022-10-22T14:29:07.961Z,63.20
2022-10-22T14:32:15.141Z,64.60
2022-10-22T14:35:20.516Z,72.60
2022-10-22T14:38:22.654Z,74.10
2022-10-22T14:41:26.141Z,77.90
2022-10-22T14:44:27.838Z,79.20
2022-10-22T14:47:29.802Z,77.00
2022-10-22T14:50:31.607Z,81.60
2022-10-22T14:53:33.640Z,77.60
2022-10-22T14:59:43.068Z,91.40
2022-10-22T15:02:45.412Z,80.80
2022-10-22T15:05:47.330Z,86.50
2022-10-22T15:08:49.317Z,79.00
2022-10-22T15:11:51.434Z,82.10
2022-10-22T15:14:53.309Z,88.90
2022-10-22T15:17:54.998Z,84.40
2022-10-22T15:20:57.557Z,87.30
2022-10-22T15:24:01.165Z,87.30
2022-10-22T15:27:03.612Z,84.90
2022-10-22T15:30:07.334Z,85.90
2022-10-22T15:33:09.171Z,88.80
2022-10-22T15:36:16.210Z,85.30
2022-10-22T15:39:18.577Z,88.30
2022-10-22T15:42:20.434Z,113.20
2022-10-22T15:45:24.430Z,159.40
2022-10-22T15:48:26.199Z,141.10
2022-10-22T15:51:28.044Z,123.90
2022-10-22T15:54:30.655Z,109.70
2022-10-22T15:57:33.201Z,107.00
2022-10-22T16:00:35.037Z,105.30
2022-10-22T16:03:37.272Z,104.00
2022-10-22T16:06:45.675Z,107.20
2022-10-22T16:09:48.481Z,118.60
2022-10-22T16:12:51.762Z,111.70
2022-10-22T16:15:56.399Z,120.60
2022-10-22T16:18:58.479Z,113.90
2022-10-22T16:22:02.197Z,113.50
2022-10-22T16:25:04.245Z,112.10
2022-10-22T16:28:06.815Z,113.40
2022-10-22T16:31:12.173Z,107.20
2022-10-22T16:34:13.925Z,112.90
2022-10-22T16:37:16.078Z,116.50
2022-10-22T16:40:18.001Z,117.10
2022-10-22T16:43:19.966Z,116.30
2022-10-22T16:46:22.695Z,110.50
2022-10-22T16:49:24.644Z,115.40
2022-10-22T16:52:26.785Z,117.00
2022-10-22T16:55:28.486Z,118.60
2022-10-22T16:58:30.663Z,122.50
2022-10-22T17:01:36.726Z,121.40
2022-10-22T17:04:41.595Z,119.60
2022-10-22T17:07:43.267Z,118.90
2022-10-22T17:10:45.062Z,120.30
2022-10-22T17:13:49.094Z,120.10
2022-10-22T17:16:53.878Z,120.60
2022-10-22T17:19:55.619Z,120.40
2022-10-22T17:22:57.596Z,125.90
2022-10-22T17:26:01.862Z,138.30
2022-10-22T17:29:04.571Z,130.20
2022-10-22T17:32:06.472Z,148.00
2022-10-22T17:35:08.772Z,163.40
2022-10-22T17:38:10.532Z,141.70
2022-10-22T17:41:17.994Z,138.20
2022-10-22T17:44:19.742Z,150.10
2022-10-22T17:47:22.299Z,133.20
2022-10-22T17:50:24.051Z,131.10
2022-10-22T17:53:25.764Z,136.70
2022-10-22T17:56:30.023Z,138.80
2022-10-22T17:59:32.676Z,148.40
2022-10-22T18:02:34.631Z,150.10
2022-10-22T18:05:36.280Z,156.50
2022-10-22T18:08:38.045Z,152.00
2022-10-22T18:11:40.167Z,147.30
2022-10-22T18:14:41.859Z,148.60
2022-10-22T18:17:44.046Z,158.40
2022-10-22T18:20:50.833Z,153.50
2022-10-22T18:23:53.117Z,161.20
2022-10-22T18:26:55.395Z,159.70
2022-10-22T18:29:57.474Z,153.30
2022-10-22T18:32:59.237Z,148.50
2022-10-22T18:36:06.795Z,141.40
2022-10-22T18:39:08.800Z,137.60
2022-10-22T18:42:10.587Z,144.00
2022-10-22T18:45:12.362Z,150.50
2022-10-22T18:48:18.189Z,154.50
2022-10-22T18:51:20.151Z,155.50
2022-10-22T18:54:23.627Z,145.00
2022-10-22T18:57:26.130Z,141.30
2022-10-22T19:00:27.901Z,137.10
2022-10-22T19:03:29.559Z,141.80
2022-10-22T19:06:35.713Z,136.40
2022-10-22T19:09:37.614Z,128.90
2022-10-22T19:12:39.411Z,129.80
2022-10-22T19:15:41.285Z,125.50
2022-10-22T19:18:43.009Z,112.50
2022-10-22T19:21:45.300Z,118.30
2022-10-22T19:24:49.535Z,108.70
2022-10-22T19:27:51.471Z,109.40
2022-10-22T19:30:54.716Z,105.30
2022-10-22T19:33:56.935Z,104.90
2022-10-22T19:36:59.052Z,99.30
2022-10-22T19:40:00.909Z,91.90
2022-10-22T19:43:02.655Z,83.30
2022-10-22T19:46:05.946Z,85.00
2022-10-22T19:49:07.770Z,80.60
2022-10-22T19:52:09.624Z,74.60
2022-10-22T19:55:11.595Z,69.20
2022-10-22T19:58:14.036Z,72.20
2022-10-22T20:01:17.569Z,68.10
2022-10-22T20:04:19.723Z,69.90
2022-10-22T20:07:22.574Z,70.50
2022-10-22T20:10:24.333Z,78.60
2022-10-22T20:13:26.278Z,66.00
2022-10-22T20:16:30.266Z,76.20
2022-10-22T20:19:32.822Z,75.10
2022-10-22T20:22:34.484Z,67.70
2022-10-22T20:25:41.590Z,72.60
2022-10-22T20:28:43.370Z,77.60
2022-10-22T20:31:45.746Z,84.40
2022-10-22T20:34:47.592Z,86.40
2022-10-22T20:37:49.800Z,90.10
2022-10-22T20:40:59.834Z,87.60
2022-10-22T20:44:02.082Z,93.40
2022-10-22T20:47:06.601Z,83.40
2022-10-22T20:50:09.746Z,94.80
2022-10-22T20:53:13.497Z,86.80
2022-10-22T20:56:18.852Z,90.20
2022-10-22T20:59:24.254Z,93.00
2022-10-22T21:02:28.158Z,88.10
2022-10-22T21:05:29.866Z,87.80
2022-10-22T21:08:32.247Z,87.20
2022-10-22T21:11:35.102Z,94.80
2022-10-22T21:14:36.976Z,91.80
2022-10-22T21:17:40.441Z,97.20
2022-10-22T21:20:42.206Z,97.70
2022-10-22T21:23:44.101Z,98.50
2022-10-22T21:26:46.491Z,96.50
2022-10-22T21:29:48.177Z,98.90
2022-10-22T21:32:49.986Z,100.80
2022-10-22T21:35:53.541Z,93.60
2022-10-22T21:38:55.423Z,93.70
2022-10-22T21:41:57.131Z,99.50
2022-10-22T21:44:58.955Z,94.70
2022-10-22T21:48:00.819Z,98.60
2022-10-22T21:51:11.003Z,104.40
2022-10-22T21:54:13.152Z,93.70
2022-10-22T21:57:15.017Z,95.20
2022-10-22T22:00:20.766Z,92.10
2022-10-22T22:03:23.613Z,90.30
2022-10-22T22:06:29.543Z,90.20
2022-10-22T22:09:34.090Z,89.90
2022-10-22T22:12:36.402Z,91.70
2022-10-22T22:15:38.082Z,82.70
2022-10-22T22:18:41.015Z,87.10
2022-10-22T22:21:45.966Z,81.40
2022-10-22T22:24:47.830Z,84.70
2022-10-22T22:27:49.745Z,79.90
2022-10-22T22:30:51.725Z,78.70
2022-10-22T22:34:22.844Z,81.70
2022-10-22T22:37:24.663Z,72.90
2022-10-22T22:40:29.154Z,82.30
2022-10-22T22:43:32.562Z,79.90
2022-10-22T22:46:34.476Z,74.70
2022-10-22T22:49:37.038Z,80.20
2022-10-22T22:52:39.000Z,80.00
2022-10-22T22:55:41.061Z,80.40
2022-10-22T22:58:43.203Z,82.70
2022-10-22T23:01:48.023Z,87.70
2022-10-22T23:05:10.676Z,92.00
2022-10-22T23:08:26.531Z,89.70
2022-10-22T23:11:45.628Z,90.50
2022-10-22T23:14:51.476Z,89.40
2022-10-22T23:17:53.285Z,87.40
2022-10-22T23:20:55.039Z,84.60
2022-10-22T23:24:00.224Z,82.70
2022-10-22T23:27:04.108Z,82.70
2022-10-22T23:30:06.474Z,74.50
2022-10-22T23:33:12.230Z,70.50
2022-10-22T23:36:14.333Z,69.90
2022-10-22T23:39:19.737Z,61.00
2022-10-22T23:42:21.532Z,60.80
2022-10-22T23:45:23.357Z,62.30
2022-10-22T23:48:25.261Z,62.40
2022-10-22T23:51:27.544Z,64.10
2022-10-22T23:54:29.321Z,63.10
2022-10-22T23:57:31.082Z,65.60
